createdAt,value
2022-08-19T00:02:00.922Z,13.83
2022-08-19T00:04:32.111Z,21.67
2022-08-19T00:07:01.620Z,18.80
2022-08-19T00:09:32.007Z,20.07
2022-08-19T00:12:00.754Z,20.60
2022-08-19T00:14:33.607Z,19.53
2022-08-19T00:17:04.051Z,21.50
2022-08-19T00:19:33.072Z,17.20
2022-08-19T00:22:04.354Z,15.10
2022-08-19T00:24:34.551Z,16.53
2022-08-19T00:27:25.621Z,14.00
2022-08-19T00:29:55.269Z,15.67
2022-08-19T00:32:27.233Z,14.30
2022-08-19T00:34:56.219Z,12.73
2022-08-19T00:37:27.757Z,15.43
2022-08-19T00:39:58.171Z,15.20
2022-08-19T00:42:29.416Z,15.83
2022-08-19T00:44:58.059Z,13.37
2022-08-19T00:47:26.562Z,18.70
2022-08-19T00:49:59.180Z,15.63
2022-08-19T00:52:31.044Z,18.00
2022-08-19T00:55:06.032Z,17.47
2022-08-19T00:57:39.273Z,16.30
2022-08-19T01:00:12.030Z,14.80
2022-08-19T01:02:41.072Z,15.00
2022-08-19T01:05:17.170Z,20.70
2022-08-19T01:07:46.484Z,13.00
2022-08-19T01:10:21.216Z,12.63
2022-08-19T01:12:50.924Z,13.83
2022-08-19T01:15:22.222Z,11.27
2022-08-19T01:17:51.487Z,9.00
2022-08-19T01:20:25.524Z,7.77
2022-08-19T01:22:57.848Z,8.23
2022-08-19T01:25:31.497Z,9.20
2022-08-19T01:28:01.638Z,8.73
2022-08-19T01:30:38.560Z,6.87
2022-08-19T01:33:07.168Z,8.30
2022-08-19T01:35:37.741Z,5.60
2022-08-19T01:38:11.091Z,6.43
2022-08-19T01:40:44.543Z,8.40
2022-08-19T01:43:12.927Z,10.93
2022-08-19T01:45:42.082Z,15.10
2022-08-19T01:48:10.624Z,5.23
2022-08-19T01:50:39.345Z,15.50
2022-08-19T01:53:13.889Z,9.60
2022-08-19T01:55:46.147Z,9.30
2022-08-19T01:58:19.741Z,8.50
2022-08-19T02:00:48.320Z,7.90
2022-08-19T02:03:17.124Z,12.77
2022-08-19T02:05:46.696Z,7.20
2022-08-19T02:08:16.627Z,11.23
2022-08-19T02:10:46.228Z,15.33
2022-08-19T02:13:16.010Z,10.33
2022-08-19T02:15:52.060Z,13.63
2022-08-19T02:18:20.578Z,8.07
2022-08-19T02:20:58.885Z,8.50
2022-08-19T02:23:31.280Z,11.20
2022-08-19T02:26:00.217Z,8.10
2022-08-19T02:28:31.325Z,9.00
2022-08-19T02:31:01.711Z,12.13
2022-08-19T02:33:30.608Z,9.67
2022-08-19T02:35:59.083Z,11.00
2022-08-19T02:38:29.072Z,10.47
2022-08-19T02:41:00.557Z,13.50
2022-08-19T02:43:33.890Z,12.47
2022-08-19T02:46:03.608Z,7.10
2022-08-19T02:48:33.918Z,12.07
2022-08-19T02:51:02.806Z,11.63
2022-08-19T02:53:32.653Z,13.87
2022-08-19T02:56:01.145Z,9.17
2022-08-19T02:58:29.693Z,12.53
2022-08-19T03:00:59.578Z,7.70
2022-08-19T03:03:28.406Z,9.77
2022-08-19T03:06:07.146Z,11.13
2022-08-19T03:08:37.155Z,8.33
2022-08-19T03:11:06.096Z,9.93
2022-08-19T03:13:35.008Z,7.80
2022-08-19T03:16:07.587Z,10.53
2022-08-19T03:18:36.175Z,12.77
2022-08-19T03:21:05.593Z,12.90
2022-08-19T03:23:34.520Z,6.53
2022-08-19T03:26:16.711Z,11.97
2022-08-19T03:28:51.335Z,8.30
2022-08-19T03:31:43.770Z,12.30
2022-08-19T03:34:13.752Z,12.37
2022-08-19T03:36:42.479Z,8.23
2022-08-19T03:39:12.558Z,10.93
2022-08-19T03:41:46.280Z,10.33
2022-08-19T03:44:21.127Z,14.90
2022-08-19T03:46:51.575Z,7.70
2022-08-19T03:49:21.648Z,12.00
2022-08-19T03:51:59.718Z,11.63
2022-08-19T03:54:28.734Z,12.13
2022-08-19T03:56:58.967Z,13.30
2022-08-19T03:59:29.616Z,14.70
2022-08-19T04:02:00.524Z,15.60
2022-08-19T04:04:29.845Z,14.90
2022-08-19T04:07:00.850Z,10.57
2022-08-19T04:09:31.388Z,11.23
2022-08-19T04:12:01.345Z,10.43
2022-08-19T04:14:32.662Z,12.07
2022-08-19T04:17:02.573Z,13.90
2022-08-19T04:19:32.434Z,16.20
2022-08-19T04:22:03.784Z,14.10
2022-08-19T04:24:32.410Z,10.50
2022-08-19T04:27:04.072Z,11.60
2022-08-19T04:29:32.593Z,12.30
2022-08-19T04:32:09.070Z,12.87
2022-08-19T04:35:02.021Z,17.37
2022-08-19T04:37:34.682Z,19.67
2022-08-19T04:40:22.450Z,18.90
2022-08-19T04:42:52.659Z,14.70
2022-08-19T04:45:22.898Z,12.03
2022-08-19T04:48:19.685Z,10.90
2022-08-19T04:50:43.706Z,15.27
2022-08-19T04:53:12.839Z,16.50
2022-08-19T04:55:43.453Z,15.83
2022-08-19T04:58:17.466Z,10.70
2022-08-19T05:00:48.254Z,11.30
2022-08-19T05:03:18.059Z,16.03
2022-08-19T05:05:49.396Z,20.67
2022-08-19T05:08:31.070Z,17.57
2022-08-19T05:11:00.110Z,12.70
2022-08-19T05:13:32.445Z,12.20
2022-08-19T05:16:03.061Z,20.23
2022-08-19T05:18:49.336Z,17.40
2022-08-19T05:21:38.150Z,12.70
2022-08-19T05:24:09.838Z,21.23
2022-08-19T05:26:38.536Z,18.03
2022-08-19T05:29:12.216Z,20.03
2022-08-19T05:31:43.721Z,14.30
2022-08-19T05:34:18.301Z,11.43
2022-08-19T05:36:49.813Z,17.50
2022-08-19T05:39:23.281Z,14.80
2022-08-19T05:41:53.677Z,12.77
2022-08-19T05:44:23.804Z,11.30
2022-08-19T05:46:54.202Z,22.17
2022-08-19T05:49:24.594Z,15.60
2022-08-19T05:51:53.113Z,10.57
2022-08-19T05:54:22.264Z,9.30
2022-08-19T05:56:53.364Z,8.57
2022-08-19T05:59:24.907Z,5.53
2022-08-19T06:01:55.391Z,9.77
2022-08-19T06:04:24.548Z,7.80
2022-08-19T06:06:54.745Z,8.17
2022-08-19T06:09:23.878Z,5.50
2022-08-19T06:11:56.042Z,8.73
2022-08-19T06:14:28.889Z,7.27
2022-08-19T06:16:57.561Z,8.00
2022-08-19T06:19:27.243Z,5.80
2022-08-19T06:21:55.748Z,6.67
2022-08-19T06:24:26.219Z,6.30
2022-08-19T06:27:00.751Z,4.47
2022-08-19T06:29:34.959Z,3.50
2022-08-19T06:32:05.083Z,6.33
2022-08-19T06:34:35.935Z,4.03
2022-08-19T06:37:06.659Z,4.93
2022-08-19T06:39:39.213Z,3.60
2022-08-19T06:42:12.389Z,9.00
2022-08-19T06:44:48.929Z,4.63
2022-08-19T06:47:23.595Z,4.63
2022-08-19T06:50:01.336Z,6.30
2022-08-19T06:52:34.027Z,5.10
2022-08-19T06:55:06.349Z,4.20
2022-08-19T06:57:36.173Z,4.17
2022-08-19T07:00:12.812Z,3.30
2022-08-19T07:02:48.237Z,2.47
2022-08-19T07:05:22.082Z,2.53
2022-08-19T07:07:50.988Z,2.20
2022-08-19T07:10:20.158Z,2.70
2022-08-19T07:12:50.025Z,2.87
2022-08-19T07:15:22.304Z,2.20
2022-08-19T07:17:52.769Z,3.07
2022-08-19T07:20:28.594Z,2.90
2022-08-19T07:22:58.367Z,3.13
2022-08-19T07:25:32.352Z,2.00
2022-08-19T07:28:04.876Z,2.27
2022-08-19T07:30:34.807Z,1.80
2022-08-19T07:33:03.741Z,2.17
2022-08-19T07:35:33.184Z,1.60
2022-08-19T07:38:04.109Z,1.40
2022-08-19T07:40:33.121Z,3.93
2022-08-19T07:43:01.778Z,3.50
2022-08-19T07:45:30.393Z,1.30
2022-08-19T07:48:01.087Z,3.00
2022-08-19T07:50:29.808Z,1.93
2022-08-19T07:52:58.804Z,2.00
2022-08-19T07:55:41.763Z,1.30
2022-08-19T07:58:13.045Z,1.60
2022-08-19T08:00:42.164Z,2.30
2022-08-19T08:03:12.995Z,2.20
2022-08-19T08:05:58.593Z,4.83
2022-08-19T08:08:48.189Z,2.60
2022-08-19T08:11:19.947Z,2.47
2022-08-19T08:14:01.359Z,1.43
2022-08-19T08:16:39.325Z,2.60
2022-08-19T08:19:20.602Z,1.83
2022-08-19T08:21:56.739Z,3.57
2022-08-19T08:24:28.272Z,2.83
2022-08-19T08:26:58.659Z,2.30
2022-08-19T08:29:34.856Z,3.60
2022-08-19T08:32:14.814Z,2.90
2022-08-19T08:34:45.165Z,3.73
2022-08-19T08:37:18.576Z,2.83
2022-08-19T08:39:47.147Z,2.73
2022-08-19T08:42:27.304Z,7.00
2022-08-19T08:45:01.164Z,2.30
2022-08-19T08:47:37.122Z,3.83
2022-08-19T08:50:13.889Z,2.87
2022-08-19T08:52:47.592Z,2.43
2022-08-19T08:55:22.972Z,2.47
2022-08-19T08:57:56.917Z,5.40
2022-08-19T09:00:30.566Z,3.60
2022-08-19T09:03:01.101Z,5.10
2022-08-19T09:05:48.695Z,2.60
2022-08-19T09:08:27.806Z,4.33
2022-08-19T09:10:58.381Z,5.00
2022-08-19T09:13:38.894Z,8.23
2022-08-19T09:16:09.792Z,3.17
2022-08-19T09:18:43.301Z,3.80
2022-08-19T09:21:14.114Z,4.00
2022-08-19T09:23:44.392Z,3.97
2022-08-19T09:26:18.003Z,2.67
2022-08-19T09:28:50.659Z,5.60
2022-08-19T09:31:22.037Z,3.30
2022-08-19T09:33:52.284Z,3.57
2022-08-19T09:36:34.807Z,4.27
2022-08-19T09:39:04.823Z,3.37
2022-08-19T09:41:47.531Z,2.33
2022-08-19T09:44:18.204Z,2.10
2022-08-19T09:46:49.056Z,3.33
2022-08-19T09:49:18.625Z,6.43
2022-08-19T09:51:51.925Z,4.10
2022-08-19T09:54:22.476Z,6.20
2022-08-19T09:56:53.683Z,3.90
2022-08-19T09:59:22.514Z,2.03
2022-08-19T10:01:51.976Z,3.70
2022-08-19T10:04:22.292Z,3.63
2022-08-19T10:06:55.365Z,4.97
2022-08-19T10:09:26.170Z,5.50
2022-08-19T10:12:04.191Z,3.63
2022-08-19T10:14:34.802Z,4.40
2022-08-19T10:17:20.072Z,5.40
2022-08-19T10:19:55.524Z,2.97
2022-08-19T10:22:26.369Z,3.00
2022-08-19T10:24:55.359Z,4.43
2022-08-19T10:27:24.280Z,3.60
2022-08-19T10:29:55.083Z,3.80
2022-08-19T10:32:33.839Z,2.60
2022-08-19T10:35:03.017Z,3.50
2022-08-19T10:37:48.420Z,2.27
2022-08-19T10:40:26.657Z,3.43
2022-08-19T10:42:56.409Z,3.07
2022-08-19T10:45:28.383Z,4.30
2022-08-19T10:47:56.950Z,3.70
2022-08-19T10:50:45.888Z,6.57
2022-08-19T10:53:16.106Z,3.97
2022-08-19T10:56:04.196Z,6.27
2022-08-19T10:58:32.645Z,6.27
2022-08-19T11:01:01.494Z,3.17
2022-08-19T11:03:33.879Z,2.70
2022-08-19T11:06:20.485Z,2.33
2022-08-19T11:08:53.284Z,2.73
2022-08-19T11:11:22.440Z,2.97
2022-08-19T11:13:51.446Z,5.13
2022-08-19T11:16:22.854Z,4.50
2022-08-19T11:18:52.858Z,3.27
2022-08-19T11:21:23.525Z,2.73
2022-08-19T11:23:55.900Z,3.50
2022-08-19T11:26:25.289Z,2.67
2022-08-19T11:28:55.443Z,2.37
2022-08-19T11:31:28.888Z,4.37
2022-08-19T11:34:00.702Z,3.50
2022-08-19T11:36:30.292Z,2.43
2022-08-19T11:39:00.416Z,5.87
2022-08-19T11:41:29.522Z,4.07
2022-08-19T11:43:57.943Z,2.57
2022-08-19T11:46:33.423Z,4.60
2022-08-19T11:49:04.015Z,2.83
2022-08-19T11:51:34.717Z,3.37
2022-08-19T11:54:06.161Z,2.70
2022-08-19T11:56:34.680Z,3.33
2022-08-19T11:59:05.535Z,2.93
2022-08-19T12:01:34.408Z,4.17
2022-08-19T12:04:02.918Z,1.90
2022-08-19T12:06:35.246Z,3.23
2022-08-19T12:09:10.759Z,4.30
2022-08-19T12:11:40.442Z,2.60
2022-08-19T12:14:14.815Z,2.63
2022-08-19T12:16:48.638Z,2.20
2022-08-19T12:19:23.217Z,3.43
2022-08-19T12:21:56.704Z,2.83
2022-08-19T12:24:30.344Z,2.40
2022-08-19T12:27:00.948Z,4.50
2022-08-19T12:29:32.189Z,4.60
2022-08-19T12:32:02.294Z,2.70
2022-08-19T12:34:33.637Z,2.47
2022-08-19T12:37:06.218Z,3.27
2022-08-19T12:39:40.035Z,3.27
2022-08-19T12:42:09.265Z,3.10
2022-08-19T12:44:38.663Z,3.27
2022-08-19T12:47:11.005Z,4.00
2022-08-19T12:49:53.434Z,2.60
2022-08-19T12:52:24.042Z,2.97
2022-08-19T12:54:55.486Z,3.90
2022-08-19T12:57:31.650Z,6.17
2022-08-19T13:00:04.734Z,3.00
2022-08-19T13:02:38.765Z,3.73
2022-08-19T13:05:11.488Z,2.40
2022-08-19T13:07:41.091Z,4.40
2022-08-19T13:10:13.367Z,3.33
2022-08-19T13:12:42.934Z,3.40
2022-08-19T13:15:12.472Z,2.73
2022-08-19T13:17:43.960Z,2.97
2022-08-19T13:20:13.487Z,2.70
2022-08-19T13:22:41.800Z,2.27
2022-08-19T13:25:12.604Z,3.17
2022-08-19T13:27:42.296Z,4.63
2022-08-19T13:30:33.956Z,3.00
2022-08-19T13:33:16.023Z,4.07
2022-08-19T13:35:48.128Z,3.10
2022-08-19T13:38:18.136Z,2.40
2022-08-19T13:40:50.635Z,3.47
2022-08-19T13:43:23.834Z,3.23
2022-08-19T13:45:57.381Z,4.60
2022-08-19T13:48:28.409Z,2.70
2022-08-19T13:50:57.231Z,2.27
2022-08-19T13:53:25.675Z,4.17
2022-08-19T13:55:55.658Z,9.10
2022-08-19T13:58:27.613Z,6.10
2022-08-19T14:00:56.145Z,3.10
2022-08-19T14:03:24.772Z,4.20
2022-08-19T14:05:53.257Z,3.93
2022-08-19T14:08:22.365Z,4.40
2022-08-19T14:10:51.644Z,3.43
2022-08-19T14:13:26.659Z,4.37
2022-08-19T14:15:55.679Z,2.47
2022-08-19T14:18:27.352Z,3.00
2022-08-19T14:20:58.953Z,3.03
2022-08-19T14:23:27.412Z,2.40
2022-08-19T14:25:59.811Z,3.47
2022-08-19T14:28:33.167Z,2.90
2022-08-19T14:31:01.753Z,3.37
2022-08-19T14:33:30.623Z,3.23
2022-08-19T14:35:59.777Z,3.50
2022-08-19T14:38:32.477Z,4.50
2022-08-19T14:41:18.064Z,2.10
2022-08-19T14:43:49.752Z,6.40
2022-08-19T14:46:21.483Z,2.43
2022-08-19T14:48:51.785Z,5.03
2022-08-19T14:51:22.196Z,3.07
2022-08-19T14:53:50.976Z,3.90
2022-08-19T14:56:22.305Z,2.93
2022-08-19T14:58:52.694Z,2.43
2022-08-19T15:01:22.685Z,4.40
2022-08-19T15:03:53.987Z,3.20
2022-08-19T15:06:23.705Z,3.47
2022-08-19T15:08:52.799Z,8.23
2022-08-19T15:11:24.499Z,5.00
2022-08-19T15:13:54.296Z,3.10
2022-08-19T15:16:24.263Z,3.00
2022-08-19T15:18:55.495Z,2.80
2022-08-19T15:21:27.363Z,2.60
2022-08-19T15:23:58.052Z,5.17
2022-08-19T15:26:29.056Z,1.90
2022-08-19T15:29:03.257Z,3.73
2022-08-19T15:31:35.121Z,3.80
2022-08-19T15:34:07.845Z,3.70
2022-08-19T15:36:38.374Z,4.87
2022-08-19T15:39:07.520Z,3.57
2022-08-19T15:41:36.966Z,4.20
2022-08-19T15:44:12.119Z,3.00
2022-08-19T15:46:42.316Z,4.90
2022-08-19T15:49:12.341Z,5.40
2022-08-19T15:51:43.221Z,4.37
2022-08-19T15:54:15.593Z,4.43
2022-08-19T15:57:07.888Z,6.23
2022-08-19T15:59:57.073Z,3.40
2022-08-19T16:02:53.585Z,5.17
2022-08-19T16:05:43.900Z,4.33
2022-08-19T16:08:12.752Z,3.20
2022-08-19T16:10:43.323Z,6.87
2022-08-19T16:13:11.924Z,3.50
2022-08-19T16:15:43.758Z,3.90
2022-08-19T16:18:15.749Z,5.13
2022-08-19T16:20:44.362Z,3.80
2022-08-19T16:23:12.857Z,3.60
2022-08-19T16:25:41.470Z,4.97
2022-08-19T16:28:10.580Z,4.30
2022-08-19T16:30:48.678Z,3.10
2022-08-19T16:33:23.185Z,4.03
2022-08-19T16:35:59.237Z,3.67
2022-08-19T16:38:37.580Z,2.73
2022-08-19T16:41:06.501Z,2.63
2022-08-19T16:43:35.281Z,4.83
2022-08-19T16:46:05.115Z,4.17
2022-08-19T16:48:33.652Z,5.90
2022-08-19T16:51:02.729Z,3.70
2022-08-19T16:53:32.022Z,6.40
2022-08-19T16:56:01.542Z,4.27
2022-08-19T16:58:34.154Z,3.47
2022-08-19T17:01:05.564Z,3.97
2022-08-19T17:03:36.385Z,3.80
2022-08-19T17:06:17.826Z,4.10
2022-08-19T17:08:50.527Z,3.77
2022-08-19T17:11:21.209Z,2.60
2022-08-19T17:13:53.318Z,3.40
2022-08-19T17:16:25.900Z,3.33
2022-08-19T17:18:57.560Z,3.50
2022-08-19T17:21:29.051Z,5.43
2022-08-19T17:23:58.053Z,3.00
2022-08-19T17:26:27.877Z,6.03
2022-08-19T17:28:58.250Z,6.83
2022-08-19T17:31:31.305Z,10.40
2022-08-19T17:34:00.584Z,3.60
2022-08-19T17:36:31.088Z,2.53
2022-08-19T17:39:01.659Z,4.83
2022-08-19T17:41:32.299Z,3.93
2022-08-19T17:44:00.779Z,4.13
2022-08-19T17:46:30.773Z,2.70
2022-08-19T17:49:00.279Z,2.20
2022-08-19T17:51:42.443Z,4.13
2022-08-19T17:54:13.871Z,3.20
2022-08-19T17:56:42.936Z,2.87
2022-08-19T17:59:14.298Z,5.30
2022-08-19T18:01:52.569Z,3.97
2022-08-19T18:04:24.084Z,6.43
2022-08-19T18:06:54.323Z,4.20
2022-08-19T18:09:30.116Z,4.03
2022-08-19T18:12:12.581Z,3.37
2022-08-19T18:14:42.366Z,7.27
2022-08-19T18:17:17.359Z,4.40
2022-08-19T18:19:47.032Z,5.20
2022-08-19T18:22:29.891Z,3.67
2022-08-19T18:25:04.648Z,8.57
2022-08-19T18:27:33.136Z,3.63
2022-08-19T18:30:01.732Z,7.00
2022-08-19T18:32:34.205Z,5.40
2022-08-19T18:35:05.337Z,2.20
2022-08-19T18:37:35.765Z,6.57
2022-08-19T18:40:22.626Z,6.00
2022-08-19T18:43:19.828Z,2.40
2022-08-19T18:46:07.165Z,5.63
2022-08-19T18:48:54.673Z,1.97
2022-08-19T18:51:29.866Z,3.37
2022-08-19T18:53:59.860Z,5.03
2022-08-19T18:56:32.255Z,4.93
2022-08-19T18:59:03.069Z,4.53
2022-08-19T19:01:37.043Z,6.40
2022-08-19T19:04:12.592Z,4.93
2022-08-19T19:06:44.236Z,2.90
2022-08-19T19:09:17.675Z,4.30
2022-08-19T19:11:51.435Z,6.73
2022-08-19T19:14:48.132Z,4.57
2022-08-19T19:17:16.775Z,3.90
2022-08-19T19:19:46.799Z,6.83
2022-08-19T19:22:19.483Z,7.47
2022-08-19T19:24:48.313Z,6.07
2022-08-19T19:27:20.558Z,6.30
2022-08-19T19:29:52.565Z,6.10
2022-08-19T19:32:23.079Z,2.03
2022-08-19T19:34:56.625Z,6.10
2022-08-19T19:37:25.157Z,3.50
2022-08-19T19:39:53.634Z,13.57
2022-08-19T19:42:23.780Z,7.20
2022-08-19T19:44:54.594Z,8.20
2022-08-19T19:47:24.587Z,6.57
2022-08-19T19:50:13.746Z,13.47
2022-08-19T19:52:46.725Z,7.03
2022-08-19T19:55:18.549Z,3.67
2022-08-19T19:57:48.825Z,3.60
2022-08-19T20:00:19.140Z,2.90
2022-08-19T20:02:51.131Z,4.70
2022-08-19T20:05:22.799Z,4.33
2022-08-19T20:08:11.686Z,2.37
2022-08-19T20:10:41.729Z,5.03
2022-08-19T20:13:11.710Z,8.63
2022-08-19T20:15:43.461Z,3.00
2022-08-19T20:18:14.342Z,4.27
2022-08-19T20:20:43.255Z,5.70
2022-08-19T20:23:16.070Z,2.93
2022-08-19T20:25:44.649Z,2.57
2022-08-19T20:28:13.621Z,7.40
2022-08-19T20:30:48.011Z,4.10
2022-08-19T20:33:16.714Z,12.80
2022-08-19T20:35:46.265Z,4.30
2022-08-19T20:38:17.767Z,4.50
2022-08-19T20:40:46.510Z,5.30
2022-08-19T20:43:15.530Z,3.50
2022-08-19T20:45:48.354Z,3.40
2022-08-19T20:48:16.869Z,8.53
2022-08-19T20:50:45.397Z,10.13
2022-08-19T20:53:17.032Z,5.50
2022-08-19T20:55:46.894Z,6.10
2022-08-19T20:58:15.384Z,3.50
2022-08-19T21:00:45.742Z,6.70
2022-08-19T21:03:17.324Z,5.83
2022-08-19T21:05:46.786Z,3.40
2022-08-19T21:08:18.502Z,3.10
2022-08-19T21:10:48.027Z,3.20
2022-08-19T21:13:17.202Z,3.90
2022-08-19T21:15:46.108Z,4.33
2022-08-19T21:18:16.638Z,4.97
2022-08-19T21:20:45.691Z,3.43
2022-08-19T21:23:18.464Z,7.53
2022-08-19T21:25:54.033Z,2.73
2022-08-19T21:28:34.371Z,4.80
2022-08-19T21:31:06.541Z,6.33
2022-08-19T21:33:35.392Z,6.73
2022-08-19T21:36:05.140Z,3.07
2022-08-19T21:38:35.264Z,4.97
2022-08-19T21:41:05.860Z,2.47
2022-08-19T21:43:35.515Z,10.00
2022-08-19T21:46:04.147Z,4.50
2022-08-19T21:48:33.120Z,6.23
2022-08-19T21:51:01.911Z,9.43
2022-08-19T21:53:31.515Z,4.97
2022-08-19T21:56:07.563Z,2.90
2022-08-19T21:58:36.385Z,3.60
2022-08-19T22:01:08.131Z,2.97
2022-08-19T22:03:37.557Z,5.73
2022-08-19T22:06:06.527Z,6.37
2022-08-19T22:08:37.686Z,11.03
2022-08-19T22:11:07.618Z,3.10
2022-08-19T22:13:39.909Z,7.93
2022-08-19T22:16:09.652Z,3.53
2022-08-19T22:18:38.352Z,5.97
2022-08-19T22:21:11.349Z,10.37
2022-08-19T22:23:40.998Z,11.03
2022-08-19T22:26:10.996Z,4.33
2022-08-19T22:28:39.674Z,5.77
2022-08-19T22:31:10.916Z,6.20
2022-08-19T22:33:39.796Z,2.83
2022-08-19T22:36:08.951Z,6.63
2022-08-19T22:38:38.364Z,3.17
2022-08-19T22:41:08.022Z,8.80
2022-08-19T22:43:38.251Z,5.60
2022-08-19T22:46:17.613Z,10.77
2022-08-19T22:48:47.094Z,9.83
2022-08-19T22:51:32.527Z,7.13
2022-08-19T22:54:02.579Z,4.07
2022-08-19T22:56:33.432Z,6.37
2022-08-19T22:59:03.620Z,7.23
2022-08-19T23:01:32.257Z,5.43
2022-08-19T23:04:03.689Z,4.23
2022-08-19T23:06:37.226Z,5.80
2022-08-19T23:09:09.144Z,5.70
2022-08-19T23:11:41.960Z,4.53
2022-08-19T23:14:12.735Z,5.23
2022-08-19T23:16:42.015Z,4.13
2022-08-19T23:19:11.113Z,10.13
2022-08-19T23:21:40.002Z,4.97
2022-08-19T23:24:08.765Z,8.73
2022-08-19T23:26:37.522Z,5.80
2022-08-19T23:29:24.359Z,4.20
2022-08-19T23:31:54.161Z,6.40
2022-08-19T23:34:23.166Z,3.10
2022-08-19T23:36:54.667Z,5.17
2022-08-19T23:39:23.124Z,5.30
2022-08-19T23:41:52.793Z,2.50
2022-08-19T23:44:21.189Z,6.47
2022-08-19T23:46:55.220Z,6.17
2022-08-19T23:49:26.509Z,6.03
2022-08-19T23:51:56.239Z,8.33
2022-08-19T23:54:42.978Z,4.73
2022-08-19T23:57:14.435Z,6.23
2022-08-19T23:59:46.825Z,9.20
